Time;durP1;ratioP1;P1;durP2;ratioP2;P2;SDS_P1;SDS_P2;PMS_P1;PMS_P2;Temp;Humidity;BMP_temperature;BMP_pressure;BME280_temperature;BME280_humidity;BME280_pressure;Samples;Min_cycle;Max_cycle;Signal;HPM_P1;HPM_P2
2022/08/15 00:03:57;;;;;;;5.10;4.70;;;25.00;60.50;;;;;;10545854;28;20220;-80
2022/08/15 00:09:06;;;;;;;5.57;4.90;;;25.00;60.20;;;;;;10532292;28;20543;-79
2022/08/15 00:14:13;;;;;;;5.60;5.20;;;25.00;60.30;;;;;;10524363;28;20208;-79
2022/08/15 00:19:19;;;;;;;5.33;4.93;;;24.80;60.60;;;;;;10543112;28;20199;-79
2022/08/15 00:24:25;;;;;;;5.00;4.70;;;24.70;62.60;;;;;;10513133;28;20311;-79
2022/08/15 00:29:29;;;;;;;4.90;4.60;;;24.70;63.30;;;;;;10546576;28;20614;-79
2022/08/15 00:34:34;;;;;;;16.70;6.00;;;24.60;63.50;;;;;;10547316;28;20253;-79
2022/08/15 00:39:36;;;;;;;5.87;5.40;;;24.60;62.90;;;;;;10508302;28;20196;-80
2022/08/15 00:44:42;;;;;;;6.13;5.43;;;24.50;63.90;;;;;;10544852;28;20630;-79
2022/08/15 00:49:46;;;;;;;5.03;4.73;;;24.40;63.10;;;;;;10519191;28;20206;-79
2022/08/15 00:54:53;;;;;;;6.13;5.63;;;24.40;64.80;;;;;;10511118;28;20598;-79
2022/08/15 00:59:58;;;;;;;6.23;5.83;;;24.40;65.30;;;;;;10527072;28;20735;-80
2022/08/15 01:05:02;;;;;;;5.20;4.90;;;24.40;66.00;;;;;;10556239;28;20215;-79
2022/08/15 01:10:06;;;;;;;6.40;6.00;;;24.40;66.60;;;;;;10546950;28;20204;-79
2022/08/15 01:15:14;;;;;;;5.70;5.20;;;24.40;65.50;;;;;;10523374;28;20596;-79
2022/08/15 01:20:23;;;;;;;5.60;5.20;;;24.50;64.40;;;;;;10523932;28;20203;-79
2022/08/15 01:25:31;;;;;;;5.60;5.30;;;24.40;64.70;;;;;;10560575;22;20616;-77
2022/08/15 01:30:40;;;;;;;5.90;5.50;;;24.40;64.50;;;;;;10503895;28;20204;-77
2022/08/15 01:35:45;;;;;;;6.60;6.00;;;24.30;65.30;;;;;;10508387;28;20286;-77
2022/08/15 01:40:59;;;;;;;5.73;5.30;;;24.20;64.60;;;;;;10474411;28;20284;-78
2022/08/15 01:46:06;;;;;;;6.40;5.80;;;24.20;65.50;;;;;;10457314;28;20282;-77
2022/08/15 01:51:10;;;;;;;6.30;5.80;;;24.30;65.30;;;;;;10456009;28;20255;-78
2022/08/15 01:56:21;;;;;;;6.10;5.80;;;24.30;65.70;;;;;;10457298;28;20312;-77
2022/08/15 02:01:39;;;;;;;6.33;5.93;;;24.30;66.00;;;;;;10458769;28;20209;-78
2022/08/15 02:06:43;;;;;;;6.00;5.50;;;24.30;67.20;;;;;;10464046;28;20244;-78
2022/08/15 02:11:51;;;;;;;6.77;6.10;;;24.30;67.30;;;;;;10456324;28;20198;-79
2022/08/15 02:16:53;;;;;;;6.10;5.70;;;24.40;67.70;;;;;;10459568;28;20209;-77
2022/08/15 02:21:55;;;;;;;6.83;5.97;;;24.30;68.30;;;;;;10469333;28;20197;-77
2022/08/15 02:26:59;;;;;;;6.07;5.67;;;24.30;68.00;;;;;;10472385;28;20225;-78
2022/08/15 02:32:06;;;;;;;5.77;5.37;;;24.30;68.60;;;;;;10462380;28;20220;-78
2022/08/15 02:37:11;;;;;;;5.53;5.13;;;24.30;68.60;;;;;;10466261;28;20243;-80
2022/08/15 02:42:15;;;;;;;6.77;5.60;;;24.30;70.30;;;;;;10478633;28;20563;-81
2022/08/15 02:47:18;;;;;;;5.50;5.17;;;24.30;68.70;;;;;;10471985;28;20252;-80
2022/08/15 02:52:22;;;;;;;5.30;5.00;;;24.30;69.10;;;;;;10487760;28;20197;-79
2022/08/15 02:57:32;;;;;;;5.87;5.40;;;24.30;69.00;;;;;;10488867;28;20213;-77
2022/08/15 03:02:50;;;;;;;6.20;5.40;;;24.30;69.50;;;;;;10481416;28;20197;-78
2022/08/15 03:07:53;;;;;;;6.40;6.00;;;24.20;69.60;;;;;;10468747;28;20236;-79
2022/08/15 03:12:59;;;;;;;5.63;5.30;;;24.20;70.00;;;;;;10461224;28;20272;-79
2022/08/15 03:18:01;;;;;;;6.73;6.10;;;24.20;70.20;;;;;;10476157;28;20702;-78
2022/08/15 03:23:04;;;;;;;6.57;6.07;;;24.20;70.20;;;;;;10474176;28;20231;-79
2022/08/15 03:28:13;;;;;;;6.03;5.63;;;24.20;70.50;;;;;;10468527;28;20221;-78
2022/08/15 03:33:15;;;;;;;6.20;5.80;;;24.20;70.30;;;;;;10466357;28;20219;-79
2022/08/15 03:38:21;;;;;;;4.57;4.27;;;24.10;70.40;;;;;;10466482;28;20224;-78
2022/08/15 03:43:28;;;;;;;5.87;5.47;;;24.10;71.00;;;;;;10478326;28;20669;-78
2022/08/15 03:48:34;;;;;;;5.70;5.30;;;24.10;71.00;;;;;;10456155;28;20229;-79
2022/08/15 03:53:39;;;;;;;6.77;6.17;;;24.00;71.90;;;;;;10467261;28;20292;-79
2022/08/15 03:58:43;;;;;;;6.20;5.70;;;24.00;72.70;;;;;;10479395;28;20208;-78
2022/08/15 04:03:49;;;;;;;6.17;5.70;;;23.90;73.40;;;;;;10461267;28;20591;-78
2022/08/15 04:08:54;;;;;;;5.63;5.30;;;23.90;74.60;;;;;;10457445;28;20599;-79
2022/08/15 04:13:58;;;;;;;6.30;5.80;;;23.90;74.70;;;;;;10454666;28;20197;-79
2022/08/15 04:19:01;;;;;;;5.80;5.40;;;23.90;74.40;;;;;;10477426;28;20224;-80
2022/08/15 04:24:07;;;;;;;5.37;4.87;;;23.80;73.90;;;;;;10463698;28;20233;-81
2022/08/15 04:29:10;;;;;;;5.53;5.07;;;23.80;73.40;;;;;;10479714;28;20221;-79
2022/08/15 04:34:12;;;;;;;4.97;4.70;;;23.80;73.40;;;;;;10464414;28;20228;-78
2022/08/15 04:39:16;;;;;;;5.50;5.07;;;23.80;72.00;;;;;;10491271;28;20250;-77
2022/08/15 04:44:34;;;;;;;5.70;5.40;;;23.70;71.90;;;;;;10484310;28;20277;-78
2022/08/15 04:49:36;;;;;;;5.90;5.60;;;23.60;72.50;;;;;;10468274;28;20232;-79
2022/08/15 04:54:39;;;;;;;5.77;5.37;;;23.60;72.60;;;;;;10470336;28;20219;-78
2022/08/15 04:59:49;;;;;;;6.67;6.03;;;23.50;73.30;;;;;;10469336;28;20201;-78
2022/08/15 05:04:56;;;;;;;5.93;5.53;;;23.50;73.90;;;;;;10474926;28;20270;-80
2022/08/15 05:10:01;;;;;;;5.60;5.30;;;23.50;74.40;;;;;;10482857;28;20291;-77
2022/08/15 05:15:12;;;;;;;5.30;4.90;;;23.50;74.10;;;;;;10474191;28;20228;-78
2022/08/15 05:20:18;;;;;;;5.87;5.47;;;23.50;73.70;;;;;;10454082;28;20208;-78
2022/08/15 05:25:21;;;;;;;5.47;5.07;;;23.50;73.70;;;;;;10471126;28;20224;-78
2022/08/15 05:30:27;;;;;;;4.90;4.60;;;23.60;74.00;;;;;;10459810;28;20206;-79
2022/08/15 05:35:30;;;;;;;5.90;5.40;;;23.60;73.30;;;;;;10463424;28;20248;-78
2022/08/15 05:40:39;;;;;;;4.90;4.53;;;23.60;73.00;;;;;;10461499;28;20205;-79
2022/08/15 05:45:49;;;;;;;6.50;6.00;;;23.60;75.00;;;;;;10457340;28;20334;-78
2022/08/15 05:50:54;;;;;;;5.90;5.40;;;23.60;75.90;;;;;;10472924;28;20288;-78
2022/08/15 05:56:04;;;;;;;5.40;5.10;;;23.50;75.10;;;;;;10487277;28;20220;-78
2022/08/15 06:01:13;;;;;;;4.93;4.63;;;23.50;74.50;;;;;;10482323;28;20205;-78
2022/08/15 06:06:21;;;;;;;2.70;2.50;;;23.40;75.00;;;;;;10468649;28;20232;-78
2022/08/15 06:11:28;;;;;;;4.87;4.67;;;23.40;74.80;;;;;;10465799;28;20235;-78
2022/08/15 06:16:40;;;;;;;5.17;4.87;;;23.40;74.40;;;;;;10470654;28;20251;-78
2022/08/15 06:21:52;;;;;;;6.20;5.83;;;23.40;74.30;;;;;;10469786;28;20197;-78
2022/08/15 06:27:00;;;;;;;6.80;6.20;;;23.50;75.90;;;;;;10497659;28;20225;-78
2022/08/15 06:32:07;;;;;;;5.00;4.70;;;23.50;78.80;;;;;;10481306;28;20200;-78
2022/08/15 06:37:19;;;;;;;6.10;5.60;;;23.40;78.30;;;;;;10467893;28;20221;-78
2022/08/15 06:42:29;;;;;;;5.17;4.87;;;23.40;79.60;;;;;;10472097;28;20201;-78
2022/08/15 06:47:39;;;;;;;5.33;5.03;;;23.40;78.60;;;;;;10502896;28;20265;-78
2022/08/15 06:52:47;;;;;;;5.63;5.23;;;23.40;80.30;;;;;;10470493;28;20240;-78
2022/08/15 06:58:00;;;;;;;6.27;5.77;;;23.40;78.60;;;;;;10461567;28;20636;-78
2022/08/15 07:03:16;;;;;;;5.70;5.00;;;23.60;77.30;;;;;;10459486;28;20224;-78
2022/08/15 07:08:26;;;;;;;5.70;5.40;;;23.70;75.70;;;;;;10452490;28;20229;-78
2022/08/15 07:13:38;;;;;;;4.90;4.60;;;24.00;74.80;;;;;;10467088;28;20205;-78
2022/08/15 07:18:46;;;;;;;4.63;4.33;;;24.30;73.00;;;;;;10485883;28;20232;-78
2022/08/15 07:24:10;;;;;;;5.63;5.23;;;24.40;72.70;;;;;;10472136;28;20224;-80
2022/08/15 07:29:24;;;;;;;5.40;5.10;;;24.60;71.40;;;;;;10477508;28;20221;-80
2022/08/15 07:34:29;;;;;;;5.70;5.40;;;24.60;71.80;;;;;;10475086;28;20219;-79
2022/08/15 07:39:37;;;;;;;4.90;4.60;;;24.70;71.60;;;;;;10484560;28;20247;-79
2022/08/15 07:44:51;;;;;;;5.17;4.87;;;25.00;69.30;;;;;;10466808;28;20223;-78
2022/08/15 07:50:03;;;;;;;5.30;4.80;;;25.50;68.20;;;;;;10479222;28;20285;-78
2022/08/15 07:55:16;;;;;;;4.57;4.27;;;25.90;68.10;;;;;;10468143;28;20215;-78
2022/08/15 08:00:22;;;;;;;5.30;4.90;;;26.10;66.10;;;;;;10457207;28;20200;-77
2022/08/15 08:05:47;;;;;;;5.73;5.23;;;26.10;65.30;;;;;;10480144;28;20232;-77
2022/08/15 08:11:01;;;;;;;4.63;4.23;;;26.10;65.80;;;;;;10470212;28;20254;-77
2022/08/15 08:16:09;;;;;;;5.27;5.07;;;26.20;66.20;;;;;;10497333;28;20736;-78
2022/08/15 08:21:17;;;;;;;4.80;4.50;;;26.20;65.80;;;;;;10465298;28;20419;-78
2022/08/15 08:26:34;;;;;;;4.20;4.00;;;26.30;64.20;;;;;;10482365;28;20697;-78
2022/08/15 08:31:43;;;;;;;4.30;4.10;;;26.30;65.20;;;;;;10458628;28;20699;-78
2022/08/15 08:37:02;;;;;;;5.23;5.03;;;26.60;64.30;;;;;;10467798;28;20217;-78
2022/08/15 08:42:16;;;;;;;4.53;4.23;;;27.20;61.60;;;;;;10491410;28;20256;-77
2022/08/15 08:47:29;;;;;;;4.67;4.33;;;27.50;60.90;;;;;;10477048;28;20227;-77
2022/08/15 08:52:41;;;;;;;4.57;4.17;;;27.70;59.40;;;;;;10473748;28;20242;-78
2022/08/15 08:57:46;;;;;;;4.50;4.20;;;27.60;60.00;;;;;;10474158;28;20225;-78
2022/08/15 09:02:54;;;;;;;4.60;4.40;;;27.70;59.50;;;;;;10477745;28;20569;-76
2022/08/15 09:08:03;;;;;;;4.70;4.50;;;27.70;59.10;;;;;;10479762;28;20304;-79
2022/08/15 09:18:31;;;;;;;4.90;4.70;;;27.90;59.00;;;;;;10469822;28;20217;-79
2022/08/15 09:23:40;;;;;;;4.90;4.70;;;27.90;57.90;;;;;;10459271;28;20220;-79
2022/08/15 09:28:45;;;;;;;5.00;4.80;;;27.80;58.70;;;;;;10492546;28;20226;-78
2022/08/15 09:34:13;;;;;;;4.80;4.57;;;27.90;59.00;;;;;;10472602;28;20197;-79
2022/08/15 09:39:40;;;;;;;5.33;4.93;;;28.00;58.00;;;;;;10479859;28;20283;-79
2022/08/15 09:45:04;;;;;;;5.57;5.20;;;28.30;57.50;;;;;;10469539;28;20307;-79
2022/08/15 09:50:32;;;;;;;5.10;4.80;;;28.20;58.30;;;;;;10472817;28;20229;-79
2022/08/15 09:55:44;;;;;;;5.23;4.93;;;28.00;58.80;;;;;;10493447;28;20228;-79
2022/08/15 10:00:58;;;;;;;4.70;4.40;;;27.90;58.60;;;;;;10481675;28;20677;-79
2022/08/15 10:06:05;;;;;;;5.80;5.50;;;28.10;58.40;;;;;;10473327;28;20213;-79
2022/08/15 10:11:13;;;;;;;4.60;4.40;;;28.40;57.90;;;;;;10470293;28;20568;-77
2022/08/15 10:16:46;;;;;;;5.50;5.20;;;29.10;57.50;;;;;;10477714;28;20688;-78
2022/08/15 10:21:48;;;;;;;5.87;5.40;;;29.50;56.90;;;;;;10482646;28;20704;-77
2022/08/15 10:27:22;;;;;;;4.57;4.37;;;29.60;56.20;;;;;;10487923;28;20270;-78
2022/08/15 10:32:38;;;;;;;5.23;5.03;;;29.40;56.10;;;;;;10484396;28;20201;-78
2022/08/15 10:37:51;;;;;;;8.20;6.00;;;29.10;56.10;;;;;;10492944;28;20276;-78
2022/08/15 10:43:11;;;;;;;5.40;5.13;;;29.10;55.80;;;;;;10467093;28;20546;-79
2022/08/15 10:48:24;;;;;;;5.80;5.40;;;28.90;56.60;;;;;;10501912;28;20232;-78
2022/08/15 10:53:42;;;;;;;4.60;4.40;;;28.80;57.80;;;;;;10467784;28;20571;-78
2022/08/15 10:58:46;;;;;;;6.67;5.13;;;28.60;57.20;;;;;;10493736;28;20847;-78
2022/08/15 11:03:53;;;;;;;5.87;5.57;;;28.30;57.40;;;;;;10473972;28;20284;-78
2022/08/15 11:08:58;;;;;;;4.57;4.37;;;27.90;57.70;;;;;;10472051;28;20324;-78
2022/08/15 11:14:08;;;;;;;5.07;4.87;;;27.60;58.40;;;;;;10472931;28;20227;-77
2022/08/15 11:19:18;;;;;;;4.43;4.23;;;27.60;58.50;;;;;;10461324;28;20616;-77
2022/08/15 11:24:30;;;;;;;5.73;5.03;;;27.80;57.60;;;;;;10465511;28;20686;-78
2022/08/15 11:29:35;;;;;;;5.57;5.23;;;27.80;58.10;;;;;;10484654;28;20631;-77
2022/08/15 11:34:39;;;;;;;5.80;5.40;;;27.70;57.40;;;;;;10462424;28;20214;-77
2022/08/15 11:39:44;;;;;;;5.90;5.50;;;27.60;57.40;;;;;;10459756;28;20227;-77
2022/08/15 11:44:52;;;;;;;5.23;4.83;;;27.60;57.00;;;;;;10455884;28;20652;-78
2022/08/15 11:49:59;;;;;;;5.53;5.03;;;27.50;57.30;;;;;;10449243;28;20231;-77
2022/08/15 11:55:28;;;;;;;4.70;4.50;;;27.50;57.00;;;;;;10485841;28;20244;-78
2022/08/15 12:00:41;;;;;;;5.10;4.70;;;27.50;57.50;;;;;;10482110;28;20205;-77
2022/08/15 12:05:43;;;;;;;4.87;4.67;;;27.70;57.40;;;;;;10478776;28;20221;-77
2022/08/15 12:10:46;;;;;;;4.80;4.60;;;27.90;57.50;;;;;;10471459;28;20716;-77
2022/08/15 12:15:49;;;;;;;5.23;5.03;;;27.90;56.90;;;;;;10493923;28;20217;-78
2022/08/15 12:21:07;;;;;;;6.47;6.00;;;27.80;57.10;;;;;;10463676;28;20221;-77
2022/08/15 12:26:11;;;;;;;5.40;5.20;;;27.60;55.80;;;;;;10489848;28;20232;-77
2022/08/15 12:31:22;;;;;;;5.80;5.50;;;27.40;56.60;;;;;;10479040;28;20237;-77
2022/08/15 12:36:25;;;;;;;5.27;5.07;;;27.30;55.80;;;;;;10473303;28;20649;-77
2022/08/15 12:41:27;;;;;;;5.83;5.57;;;27.30;56.00;;;;;;10485973;28;20240;-77
2022/08/15 12:46:31;;;;;;;4.13;3.93;;;27.30;56.00;;;;;;10460499;28;20572;-77
2022/08/15 12:51:33;;;;;;;5.60;5.20;;;27.30;56.80;;;;;;10477409;28;20700;-77
2022/08/15 12:56:35;;;;;;;5.80;5.50;;;27.40;57.00;;;;;;10463132;28;20237;-77
2022/08/15 13:01:42;;;;;;;5.23;4.93;;;27.50;57.30;;;;;;10466529;28;20199;-77
2022/08/15 13:06:48;;;;;;;4.93;4.73;;;27.60;57.30;;;;;;10460872;28;20267;-77
2022/08/15 13:11:51;;;;;;;5.50;5.20;;;27.70;57.40;;;;;;10459025;28;20201;-77
2022/08/15 13:16:55;;;;;;;4.80;4.50;;;27.80;57.00;;;;;;10474589;28;20248;-77
2022/08/15 13:27:18;;;;;;;5.63;5.33;;;27.80;57.60;;;;;;10462469;28;20643;-77
2022/08/15 13:32:22;;;;;;;5.47;5.17;;;27.80;57.70;;;;;;10469501;28;20200;-77
2022/08/15 13:37:27;;;;;;;5.17;4.97;;;27.80;57.30;;;;;;10480885;28;20217;-77
2022/08/15 13:42:29;;;;;;;5.33;4.93;;;27.90;56.60;;;;;;10462671;28;20203;-77
2022/08/15 13:47:33;;;;;;;10.00;3.90;;;28.10;56.30;;;;;;10447351;28;20221;-77
2022/08/15 13:52:35;;;;;;;5.30;5.00;;;28.00;56.90;;;;;;10490685;28;20241;-78
2022/08/15 13:57:37;;;;;;;5.40;5.10;;;27.90;56.40;;;;;;10476042;28;20248;-78
2022/08/15 14:02:43;;;;;;;5.20;5.00;;;28.00;56.70;;;;;;10474981;28;20205;-78
2022/08/15 14:07:47;;;;;;;5.57;5.17;;;28.00;56.20;;;;;;10453272;28;20249;-78
2022/08/15 14:12:50;;;;;;;5.40;5.00;;;28.00;56.30;;;;;;10471900;28;20216;-78
2022/08/15 14:17:53;;;;;;;5.53;5.23;;;27.90;57.40;;;;;;10472315;28;20251;-79
2022/08/15 14:22:58;;;;;;;5.60;5.30;;;27.80;56.90;;;;;;10465940;28;20209;-78
2022/08/15 14:28:00;;;;;;;5.67;5.37;;;27.70;56.50;;;;;;10480698;28;20221;-78
2022/08/15 14:33:05;;;;;;;5.50;5.10;;;27.70;57.00;;;;;;10460645;28;20441;-78
2022/08/15 14:38:08;;;;;;;4.73;4.33;;;27.70;57.30;;;;;;10469904;28;20213;-77
2022/08/15 14:43:14;;;;;;;5.30;4.90;;;27.60;57.90;;;;;;10480201;28;20193;-78
2022/08/15 14:48:22;;;;;;;5.87;5.27;;;27.60;58.30;;;;;;10488495;28;20586;-78
2022/08/15 14:53:24;;;;;;;7.33;6.80;;;27.40;59.40;;;;;;10484105;28;20252;-78
2022/08/15 14:58:27;;;;;;;6.07;5.43;;;27.30;61.20;;;;;;10457438;28;20275;-78
2022/08/15 15:03:32;;;;;;;5.70;5.20;;;26.90;62.30;;;;;;10469707;28;20677;-78
2022/08/15 15:08:35;;;;;;;5.13;4.70;;;26.70;62.70;;;;;;10470962;28;20239;-78
2022/08/15 15:13:37;;;;;;;5.00;4.70;;;26.60;62.80;;;;;;10494081;28;20209;-78
2022/08/15 15:18:42;;;;;;;6.00;5.13;;;26.50;62.60;;;;;;10467854;28;20251;-78
2022/08/15 15:23:46;;;;;;;4.70;4.40;;;26.40;64.00;;;;;;10457876;28;20211;-78
2022/08/15 15:28:49;;;;;;;6.40;6.00;;;26.40;63.30;;;;;;10492728;28;20225;-78
2022/08/15 15:33:53;;;;;;;5.40;5.10;;;26.30;64.40;;;;;;10465705;28;20582;-78
2022/08/15 15:38:56;;;;;;;5.10;4.80;;;26.20;63.70;;;;;;10475691;28;20204;-78
2022/08/15 15:43:58;;;;;;;4.47;4.17;;;26.10;64.50;;;;;;10458789;28;20208;-77
2022/08/15 15:49:03;;;;;;;4.30;4.00;;;26.00;64.00;;;;;;10466510;28;20229;-78
2022/08/15 15:54:07;;;;;;;4.20;4.00;;;25.80;64.30;;;;;;10469564;28;20218;-77
2022/08/15 15:59:09;;;;;;;4.13;3.80;;;25.70;65.00;;;;;;10464007;28;20193;-78
2022/08/15 16:04:12;;;;;;;3.00;2.90;;;25.70;64.20;;;;;;10479267;28;20213;-78
2022/08/15 16:09:14;;;;;;;4.53;4.23;;;25.60;64.60;;;;;;10476185;28;20217;-79
2022/08/15 16:14:23;;;;;;;4.10;3.90;;;25.60;64.60;;;;;;10476137;28;20252;-80
2022/08/15 16:19:31;;;;;;;2.37;2.17;;;25.60;63.20;;;;;;10495209;28;20676;-80
2022/08/15 16:24:38;;;;;;;4.73;4.43;;;25.70;61.50;;;;;;10473294;28;20233;-80
2022/08/15 16:29:48;;;;;;;2.70;2.43;;;25.80;61.10;;;;;;10463917;28;20227;-80
2022/08/15 16:34:57;;;;;;;4.30;4.10;;;25.80;59.40;;;;;;10466165;28;20700;-78
2022/08/15 16:40:06;;;;;;;3.70;3.50;;;25.80;60.80;;;;;;10491535;28;20216;-77
2022/08/15 16:45:13;;;;;;;4.50;4.30;;;25.90;60.90;;;;;;10460453;28;20221;-78
2022/08/15 16:50:22;;;;;;;4.20;4.00;;;26.00;61.70;;;;;;10468476;28;20252;-77
2022/08/15 16:55:35;;;;;;;4.53;4.23;;;26.00;61.00;;;;;;10477241;28;20219;-79
2022/08/15 17:00:45;;;;;;;4.20;3.80;;;26.00;60.30;;;;;;10462884;28;20511;-78
2022/08/15 17:05:55;;;;;;;4.57;4.13;;;26.00;60.40;;;;;;10488692;28;20308;-78
2022/08/15 17:11:04;;;;;;;4.40;4.17;;;25.90;61.50;;;;;;10465128;28;20642;-77
2022/08/15 17:16:21;;;;;;;4.80;4.50;;;25.70;60.20;;;;;;10470393;28;20697;-77
2022/08/15 17:21:31;;;;;;;4.27;3.97;;;25.60;60.10;;;;;;10484102;28;20199;-78
2022/08/15 17:26:39;;;;;;;4.50;4.20;;;25.50;60.50;;;;;;10483652;28;20259;-78
2022/08/15 17:31:43;;;;;;;3.67;3.47;;;25.40;58.40;;;;;;10476027;28;20296;-78
2022/08/15 17:36:46;;;;;;;3.17;2.97;;;25.30;59.50;;;;;;10478255;28;20224;-78
2022/08/15 17:41:51;;;;;;;3.93;3.73;;;25.30;57.90;;;;;;10486523;28;20200;-77
2022/08/15 17:46:58;;;;;;;4.50;3.40;;;25.10;57.00;;;;;;10476720;28;20300;-77
2022/08/15 17:52:08;;;;;;;3.70;3.50;;;25.00;56.10;;;;;;10486203;28;20226;-78
2022/08/15 17:57:14;;;;;;;4.03;3.77;;;24.90;56.40;;;;;;10470513;28;20224;-77
2022/08/15 18:02:19;;;;;;;3.50;3.40;;;24.80;56.70;;;;;;10476382;28;20196;-79
2022/08/15 18:07:24;;;;;;;4.00;3.80;;;24.70;58.20;;;;;;10491406;28;20220;-78
2022/08/15 18:12:29;;;;;;;3.97;3.77;;;24.70;57.30;;;;;;10481187;28;20283;-78
2022/08/15 18:17:32;;;;;;;4.37;4.17;;;24.60;58.30;;;;;;10482221;28;20282;-78
2022/08/15 18:22:36;;;;;;;4.27;4.07;;;24.50;58.10;;;;;;10479197;28;20231;-80
2022/08/15 18:27:41;;;;;;;4.40;4.10;;;24.40;59.70;;;;;;10479446;28;20279;-79
2022/08/15 18:32:50;;;;;;;4.03;3.80;;;24.40;59.20;;;;;;10464485;28;20284;-79
2022/08/15 18:38:20;;;;;;;3.20;3.10;;;24.40;59.40;;;;;;10491430;28;21020;-79
2022/08/15 18:43:23;;;;;;;4.60;4.13;;;24.30;58.90;;;;;;10473536;28;20197;-77
2022/08/15 18:48:27;;;;;;;4.50;4.30;;;24.30;59.00;;;;;;10470356;28;20229;-79
2022/08/15 18:53:44;;;;;;;4.20;4.00;;;24.20;59.80;;;;;;10476817;28;20220;-77
2022/08/15 18:58:46;;;;;;;4.10;3.90;;;24.10;60.90;;;;;;10489627;28;20732;-79
2022/08/15 19:03:50;;;;;;;3.93;3.73;;;24.00;59.80;;;;;;10491288;28;20266;-79
2022/08/15 19:08:55;;;;;;;3.90;3.70;;;24.00;60.80;;;;;;10456126;28;20225;-78
2022/08/15 19:14:08;;;;;;;3.90;3.60;;;23.90;59.90;;;;;;10464905;28;20222;-79
2022/08/15 19:19:19;;;;;;;4.07;3.77;;;23.80;61.60;;;;;;10481693;28;20319;-80
2022/08/15 19:24:26;;;;;;;4.43;4.13;;;23.80;62.80;;;;;;10452610;28;20228;-79
2022/08/15 19:29:51;;;;;;;4.40;4.20;;;23.80;62.90;;;;;;10470649;28;20225;-79
2022/08/15 19:35:04;;;;;;;5.63;3.87;;;23.70;61.40;;;;;;10476493;28;20266;-79
2022/08/15 19:40:18;;;;;;;5.37;5.10;;;23.60;62.10;;;;;;10480135;28;20292;-79
2022/08/15 19:45:27;;;;;;;4.67;4.47;;;23.50;62.60;;;;;;10466620;28;20227;-79
2022/08/15 19:56:01;;;;;;;4.70;4.50;;;23.40;63.40;;;;;;10483330;28;20243;-79
2022/08/15 20:01:11;;;;;;;4.33;4.10;;;23.20;64.20;;;;;;10467228;28;20197;-79
2022/08/15 20:06:23;;;;;;;5.37;4.97;;;23.10;64.70;;;;;;10461361;28;20572;-79
2022/08/15 20:11:36;;;;;;;5.47;5.13;;;23.10;64.90;;;;;;10459245;28;20278;-80
2022/08/15 20:16:46;;;;;;;4.50;4.20;;;23.10;65.10;;;;;;10475160;28;20657;-77
2022/08/15 20:21:56;;;;;;;4.40;4.20;;;23.10;65.50;;;;;;10455731;28;20279;-79
2022/08/15 20:27:03;;;;;;;4.27;4.07;;;23.10;65.50;;;;;;10480131;28;20236;-78
2022/08/15 20:32:11;;;;;;;4.53;4.13;;;23.10;65.90;;;;;;10457480;28;20715;-79
2022/08/15 20:37:17;;;;;;;3.93;3.60;;;23.00;65.60;;;;;;10456718;28;20225;-78
2022/08/15 20:42:27;;;;;;;4.93;4.60;;;23.00;66.50;;;;;;10486314;28;20185;-79
2022/08/15 20:47:36;;;;;;;4.30;3.90;;;23.00;67.20;;;;;;10472282;28;20216;-79
2022/08/15 20:52:40;;;;;;;4.90;4.60;;;23.00;67.30;;;;;;10473616;28;20224;-79
2022/08/15 20:57:44;;;;;;;4.83;3.90;;;23.00;67.60;;;;;;10486374;28;20224;-79
2022/08/15 21:02:48;;;;;;;4.27;4.00;;;23.00;68.00;;;;;;10462421;28;20722;-80
2022/08/15 21:08:35;;;;;;;4.17;3.90;;;23.00;68.00;;;;;;10468561;28;20225;-80
2022/08/15 21:13:56;;;;;;;5.27;4.80;;;23.00;68.10;;;;;;10468945;28;20197;-80
2022/08/15 21:19:09;;;;;;;4.77;4.47;;;23.00;68.60;;;;;;10486044;28;20189;-79
2022/08/15 21:24:25;;;;;;;4.77;4.57;;;23.00;68.30;;;;;;10466289;28;20636;-80
2022/08/15 21:29:31;;;;;;;4.53;4.23;;;22.90;68.60;;;;;;10493028;28;20217;-79
2022/08/15 21:34:35;;;;;;;4.60;4.30;;;22.90;68.50;;;;;;10478697;28;20217;-78
2022/08/15 21:39:54;;;;;;;4.60;4.27;;;22.90;68.90;;;;;;10477715;28;20193;-79
2022/08/15 21:45:17;;;;;;;4.60;4.30;;;22.80;69.80;;;;;;10470702;28;20255;-78
2022/08/15 21:50:25;;;;;;;5.37;4.90;;;22.80;70.20;;;;;;10498134;28;20232;-79
2022/08/15 21:55:44;;;;;;;5.37;5.07;;;22.70;70.50;;;;;;10481603;28;20316;-79
2022/08/15 22:00:49;;;;;;;4.47;4.10;;;22.70;71.30;;;;;;10497139;28;20207;-78
2022/08/15 22:05:55;;;;;;;5.33;5.03;;;22.70;71.30;;;;;;10471504;28;20252;-78
2022/08/15 22:11:02;;;;;;;5.40;5.10;;;22.70;71.20;;;;;;10497741;28;20213;-78
2022/08/15 22:16:06;;;;;;;5.43;5.03;;;22.50;71.80;;;;;;10490915;28;20287;-78
2022/08/15 22:21:09;;;;;;;10.63;5.63;;;22.50;71.70;;;;;;10495231;28;20228;-78
2022/08/15 22:26:16;;;;;;;13.33;11.93;;;22.50;72.10;;;;;;10480381;28;20278;-78
2022/08/15 22:31:20;;;;;;;5.70;5.30;;;22.40;72.90;;;;;;10488717;28;20220;-78
2022/08/15 22:36:23;;;;;;;5.60;5.10;;;22.30;71.30;;;;;;10493260;28;20296;-78
2022/08/15 22:41:25;;;;;;;5.87;5.37;;;22.30;72.50;;;;;;10484816;28;20239;-78
2022/08/15 22:46:33;;;;;;;4.93;4.57;;;22.40;71.50;;;;;;10487046;28;20315;-78
2022/08/15 22:51:38;;;;;;;5.10;4.60;;;22.40;71.20;;;;;;10480127;28;20266;-77
2022/08/15 22:56:41;;;;;;;5.47;5.17;;;22.30;70.80;;;;;;10465023;28;20595;-77
2022/08/15 23:01:48;;;;;;;5.67;5.23;;;22.30;71.50;;;;;;10483704;28;20342;-77
2022/08/15 23:06:59;;;;;;;5.00;4.60;;;22.30;71.20;;;;;;10465015;28;20240;-77
2022/08/15 23:12:05;;;;;;;5.43;5.03;;;22.30;70.70;;;;;;10482720;28;20221;-78
2022/08/15 23:17:13;;;;;;;4.83;4.50;;;22.30;71.00;;;;;;10493684;28;20235;-77
2022/08/15 23:22:17;;;;;;;4.17;3.97;;;22.30;71.40;;;;;;10484100;28;20195;-78
2022/08/15 23:27:29;;;;;;;5.00;4.70;;;22.30;71.20;;;;;;10476904;28;20262;-77
2022/08/15 23:32:35;;;;;;;4.10;3.80;;;22.30;70.80;;;;;;10471566;28;20221;-77
2022/08/15 23:37:42;;;;;;;4.83;4.57;;;22.40;71.30;;;;;;10486781;28;20662;-77
2022/08/15 23:42:48;;;;;;;5.73;5.23;;;22.50;70.70;;;;;;10484279;28;20265;-77
2022/08/15 23:47:52;;;;;;;4.73;4.43;;;22.50;71.60;;;;;;10478578;28;20236;-78
2022/08/15 23:52:56;;;;;;;5.23;4.20;;;22.60;71.10;;;;;;10457398;28;20581;-78
2022/08/15 23:58:00;;;;;;;5.00;4.60;;;22.70;71.10;;;;;;10482916;28;20303;-76
